Brussels, Belgium
Current Conditions -  °F | °C
As of 8:20 PM on Monday 20 Oct 2014 (Local Time) from EBBR Reporting Station
Scattered Clouds Scattered Clouds  
Wind Chill: 14°   Ceiling: Unl
Heat Index: 14°   Visibility: 6mi
Dew Point: 11°   Wind: 9mph
Humidity: 82%   Direction: 230°SW
Pressure: 30"   Gusts: NA
Location:  50.85°N, 4.38°E
Report Text: EBBR 201820Z 23008KT 9999 SCT024 14/11 Q1016 NOSIG
Loading
Personal Weather Stations






























Interactive Weather Map
Tropical Storm Tracking
New forecast layout! Learn more

10-Day Weather Forecast

Advertisements
Track Severe Weather on mobile